Time;durP1;ratioP1;P1;durP2;ratioP2;P2;SDS_P1;SDS_P2;PMS_P1;PMS_P2;Temp;Humidity;BMP_temperature;BMP_pressure;BME280_temperature;BME280_humidity;BME280_pressure;Samples;Min_cycle;Max_cycle;Signal;HPM_P1;HPM_P2
2023/05/31 00:01:16;;;;;;;4.28;3.90;;;;;;;16.73;73.73;96593.56;5020794;28;20227;-57
2023/05/31 00:03:43;;;;;;;4.30;3.92;;;;;;;16.64;74.22;96592.00;5034638;28;20216;-57
2023/05/31 00:06:10;;;;;;;5.82;4.13;;;;;;;16.64;72.72;96592.00;5030775;28;20655;-57
2023/05/31 00:08:38;;;;;;;4.10;3.80;;;;;;;16.72;73.84;96593.75;5034323;28;20383;-57
2023/05/31 00:11:05;;;;;;;4.68;3.85;;;;;;;16.59;76.21;96591.69;5030083;28;20243;-57
2023/05/31 00:13:34;;;;;;;5.15;4.20;;;;;;;16.60;75.44;96596.03;5032347;28;20663;-57
2023/05/31 00:16:00;;;;;;;3.75;3.45;;;;;;;16.65;72.32;96582.94;5034097;28;20207;-57
2023/05/31 00:18:29;;;;;;;3.95;3.65;;;;;;;16.70;71.32;96583.25;5034504;28;20199;-56
2023/05/31 00:20:58;;;;;;;7.32;3.88;;;;;;;16.74;71.42;96589.88;5037645;28;20208;-58
2023/05/31 00:23:25;;;;;;;4.50;4.10;;;;;;;16.90;66.93;96580.84;5038350;28;20204;-57
2023/05/31 00:25:52;;;;;;;4.45;3.60;;;;;;;17.00;66.67;96583.28;5037832;28;20265;-57
2023/05/31 00:28:19;;;;;;;4.40;4.00;;;;;;;17.07;68.25;96577.00;5038348;28;20545;-58
2023/05/31 00:30:47;;;;;;;3.78;3.47;;;;;;;17.10;69.65;96575.81;5032272;28;20261;-58
2023/05/31 00:33:14;;;;;;;4.45;3.70;;;;;;;17.14;70.66;96577.94;5038252;28;20223;-57
2023/05/31 00:35:40;;;;;;;4.20;3.78;;;;;;;17.01;72.60;96577.72;5037959;28;20203;-58
2023/05/31 00:38:07;;;;;;;5.03;3.97;;;;;;;16.95;67.56;96583.81;5009876;28;20629;-57
2023/05/31 00:40:35;;;;;;;6.28;3.63;;;;;;;17.08;68.93;96578.66;5038238;28;20687;-58
2023/05/31 00:43:03;;;;;;;5.00;4.10;;;;;;;17.06;70.32;96578.03;5037768;28;20265;-57
2023/05/31 00:45:29;;;;;;;4.80;4.30;;;;;;;17.04;72.13;96576.56;5037683;28;20222;-58
2023/05/31 00:47:56;;;;;;;7.55;3.97;;;;;;;17.02;72.12;96573.22;5030040;28;20200;-57
2023/05/31 00:50:22;;;;;;;4.40;4.00;;;;;;;17.03;72.67;96578.41;5037418;28;20238;-58
2023/05/31 00:52:51;;;;;;;4.22;3.83;;;;;;;17.01;72.06;96576.91;5038087;28;20200;-57
2023/05/31 00:55:18;;;;;;;4.93;3.83;;;;;;;16.98;71.52;96579.94;5037674;28;20635;-57
2023/05/31 00:57:44;;;;;;;3.97;3.58;;;;;;;16.93;72.57;96570.63;5031562;28;20625;-57
2023/05/31 01:00:14;;;;;;;5.50;4.18;;;;;;;16.82;73.75;96578.28;5023330;28;20223;-57
2023/05/31 01:02:41;;;;;;;5.35;4.00;;;;;;;16.78;73.14;96577.84;5037747;28;20262;-57
2023/05/31 01:05:08;;;;;;;4.45;4.05;;;;;;;16.80;72.75;96573.13;5037028;28;20212;-58
2023/05/31 01:07:35;;;;;;;6.45;4.10;;;;;;;16.83;68.32;96569.25;5020058;28;20208;-57
2023/05/31 01:10:02;;;;;;;5.00;3.88;;;;;;;16.88;67.71;96561.53;5037228;28;20243;-57
2023/05/31 01:12:34;;;;;;;5.40;4.38;;;;;;;16.89;68.96;96563.19;5036944;28;20208;-57
2023/05/31 01:15:08;;;;;;;5.32;4.20;;;;;;;16.91;70.21;96564.66;5036982;28;20248;-58
2023/05/31 01:17:40;;;;;;;4.80;4.40;;;;;;;16.83;68.07;96563.91;5035731;28;20199;-57
2023/05/31 01:20:11;;;;;;;4.47;4.07;;;;;;;16.79;67.73;96566.13;5030331;28;20295;-57
2023/05/31 01:22:50;;;;;;;5.50;3.80;;;;;;;16.92;68.28;96562.81;5024680;28;20250;-57
2023/05/31 01:25:32;;;;;;;6.00;3.92;;;;;;;16.87;71.29;96566.03;5037476;28;20199;-57
2023/05/31 01:28:01;;;;;;;4.22;3.85;;;;;;;16.82;70.36;96567.63;5033775;28;20200;-57
2023/05/31 01:30:29;;;;;;;5.35;4.65;;;;;;;16.81;71.32;96561.44;5045082;28;20198;-57
2023/05/31 01:32:57;;;;;;;4.80;3.90;;;;;;;16.78;72.74;96561.81;5055094;28;20199;-57
2023/05/31 01:35:23;;;;;;;5.47;4.45;;;;;;;16.63;73.91;96566.28;5057488;28;20217;-58
2023/05/31 01:37:50;;;;;;;4.60;3.92;;;;;;;16.63;73.24;96563.63;5058603;28;20238;-58
2023/05/31 01:40:17;;;;;;;4.20;3.80;;;;;;;16.63;74.07;96568.13;5058765;28;20207;-57
2023/05/31 01:42:44;;;;;;;4.38;3.97;;;;;;;16.59;74.03;96567.66;5058200;28;20196;-57
2023/05/31 01:45:14;;;;;;;5.50;4.25;;;;;;;16.60;70.91;96564.00;5058470;28;20184;-58
2023/05/31 01:47:41;;;;;;;4.75;3.97;;;;;;;16.56;72.95;96568.03;5058840;28;20200;-58
2023/05/31 01:50:09;;;;;;;6.53;4.78;;;;;;;16.52;69.06;96571.22;5058514;28;20203;-57
2023/05/31 01:52:37;;;;;;;4.30;4.00;;;;;;;16.53;68.97;96575.53;5058290;28;20226;-57
2023/05/31 01:55:04;;;;;;;4.70;4.20;;;;;;;16.55;68.60;96576.19;5055819;28;20222;-57
2023/05/31 01:57:31;;;;;;;4.47;4.07;;;;;;;16.64;68.33;96567.13;5045555;28;20219;-57
2023/05/31 01:59:59;;;;;;;4.95;4.28;;;;;;;16.58;68.92;96566.00;5039088;28;20201;-57
2023/05/31 02:02:28;;;;;;;5.80;4.60;;;;;;;16.65;68.84;96568.78;5032395;28;20212;-57
2023/05/31 02:05:05;;;;;;;4.65;4.25;;;;;;;16.58;68.69;96574.00;5055363;28;20204;-57
2023/05/31 02:07:32;;;;;;;6.38;4.20;;;;;;;16.63;68.78;96568.97;5054717;28;20199;-58
2023/05/31 02:09:58;;;;;;;4.82;4.38;;;;;;;16.59;68.48;96573.00;5055590;28;20235;-58
2023/05/31 02:12:25;;;;;;;6.68;4.78;;;;;;;16.55;68.48;96582.34;5048573;28;20210;-57
2023/05/31 02:14:51;;;;;;;5.70;4.07;;;;;;;16.63;68.35;96568.13;5057482;28;20234;-65
2023/05/31 02:17:18;;;;;;;4.38;3.97;;;;;;;16.64;68.47;96578.66;5040705;28;20216;-58
2023/05/31 02:19:46;;;;;;;4.50;4.10;;;;;;;16.62;69.68;96572.63;5051390;28;20219;-58
2023/05/31 02:22:13;;;;;;;7.35;4.57;;;;;;;16.57;69.05;96583.06;5043501;28;20212;-57
2023/05/31 02:24:41;;;;;;;5.55;4.80;;;;;;;16.44;69.72;96582.78;5053677;28;20208;-57
2023/05/31 02:27:07;;;;;;;7.57;4.30;;;;;;;16.56;69.34;96578.72;5056104;28;20215;-57
2023/05/31 02:29:34;;;;;;;5.35;4.68;;;;;;;16.57;69.48;96577.72;5057502;28;20238;-57
2023/05/31 02:32:00;;;;;;;5.32;4.50;;;;;;;16.54;69.58;96580.72;5057123;28;20207;-57
2023/05/31 02:34:27;;;;;;;5.43;4.15;;;;;;;16.54;69.68;96586.06;5056483;28;20287;-57
2023/05/31 02:36:57;;;;;;;5.82;4.47;;;;;;;16.43;69.31;96586.50;5052711;28;20218;-57
2023/05/31 02:39:25;;;;;;;5.28;4.57;;;;;;;16.39;69.86;96590.53;5047532;28;20207;-57
2023/05/31 02:41:54;;;;;;;5.20;4.70;;;;;;;16.35;70.36;96578.53;5056398;28;20271;-57
2023/05/31 02:44:21;;;;;;;4.88;4.15;;;;;;;16.42;70.32;96582.97;5057208;28;20196;-57
2023/05/31 02:46:48;;;;;;;6.45;4.80;;;;;;;16.18;70.63;96577.88;5055504;28;20242;-58
2023/05/31 02:49:14;;;;;;;6.13;4.40;;;;;;;16.16;70.36;96577.19;5056901;28;20188;-57
2023/05/31 02:51:41;;;;;;;5.78;3.83;;;;;;;16.21;70.28;96574.00;5056565;28;20234;-58
2023/05/31 02:54:09;;;;;;;5.45;4.15;;;;;;;16.31;70.13;96579.91;5056163;28;20227;-57
2023/05/31 02:56:35;;;;;;;6.18;4.50;;;;;;;16.21;71.41;96584.66;5046499;28;20204;-57
2023/05/31 02:59:02;;;;;;;7.15;4.60;;;;;;;16.10;71.11;96582.41;5049507;28;20231;-58
2023/05/31 03:01:29;;;;;;;5.07;4.57;;;;;;;16.19;71.44;96581.38;5021585;28;20219;-58
2023/05/31 03:03:55;;;;;;;5.28;4.80;;;;;;;16.16;71.07;96573.69;5048647;28;20214;-58
2023/05/31 03:06:23;;;;;;;5.30;4.40;;;;;;;16.19;70.84;96574.16;5051236;28;20247;-58
2023/05/31 03:08:49;;;;;;;6.90;4.28;;;;;;;16.16;71.49;96577.19;5054812;28;20267;-57
2023/05/31 03:11:17;;;;;;;5.03;4.33;;;;;;;16.07;71.43;96572.13;5024706;28;20307;-57
2023/05/31 03:13:44;;;;;;;4.82;4.43;;;;;;;16.09;71.47;96580.75;5050509;28;20295;-56
2023/05/31 03:16:11;;;;;;;5.50;4.27;;;;;;;16.07;73.63;96588.13;5022793;28;20298;-56
2023/05/31 03:18:37;;;;;;;4.75;4.35;;;;;;;16.10;74.82;96588.59;5036571;28;20219;-56
2023/05/31 03:21:04;;;;;;;5.00;4.57;;;;;;;16.12;75.38;96588.44;5035581;28;20211;-56
2023/05/31 03:23:31;;;;;;;4.65;4.15;;;;;;;16.08;75.57;96584.44;5035358;28;20204;-56
2023/05/31 03:25:58;;;;;;;4.78;4.28;;;;;;;16.05;74.45;96579.47;5035554;28;20211;-57
2023/05/31 03:28:26;;;;;;;7.57;4.20;;;;;;;16.02;75.59;96582.47;5035003;28;20215;-58
2023/05/31 03:30:53;;;;;;;4.95;4.13;;;;;;;15.98;78.03;96578.53;5034793;28;20203;-57
2023/05/31 03:33:21;;;;;;;4.93;4.35;;;;;;;16.00;75.30;96581.84;5033869;28;20621;-57
2023/05/31 03:35:47;;;;;;;5.82;4.45;;;;;;;15.83;73.66;96587.28;5035699;28;20587;-57
2023/05/31 03:38:14;;;;;;;4.97;4.47;;;;;;;15.85;74.74;96585.25;5035128;28;20690;-57
2023/05/31 03:40:43;;;;;;;8.30;4.60;;;;;;;15.83;73.25;96589.97;5035190;28;20215;-58
2023/05/31 03:43:10;;;;;;;6.13;4.43;;;;;;;15.90;74.69;96590.09;5025982;28;20208;-58
2023/05/31 03:45:37;;;;;;;4.93;4.38;;;;;;;15.84;76.94;96583.59;5034442;28;20270;-58
2023/05/31 03:48:04;;;;;;;5.38;4.88;;;;;;;15.87;75.79;96593.09;5034232;28;20219;-57
2023/05/31 03:50:31;;;;;;;6.97;4.82;;;;;;;15.82;74.81;96590.97;5034670;28;20212;-57
2023/05/31 03:52:57;;;;;;;8.38;4.65;;;;;;;15.83;75.87;96597.97;5031027;28;20211;-57
2023/05/31 03:55:24;;;;;;;6.47;4.70;;;;;;;15.83;74.23;96587.28;5033281;28;20227;-57
2023/05/31 03:57:51;;;;;;;5.47;4.60;;;;;;;15.78;74.34;96597.66;5034309;28;20203;-58
2023/05/31 04:00:18;;;;;;;7.07;4.63;;;;;;;15.75;74.29;96595.34;5016213;28;20585;-56
2023/05/31 04:02:46;;;;;;;5.30;4.75;;;;;;;15.67;75.04;96597.22;5034538;28;20208;-58
2023/05/31 04:05:13;;;;;;;6.25;4.32;;;;;;;15.65;74.46;96600.06;5034505;28;20207;-57
2023/05/31 04:07:39;;;;;;;5.38;4.60;;;;;;;15.60;74.74;96596.25;5030588;28;20230;-57
2023/05/31 04:10:07;;;;;;;5.40;4.83;;;;;;;15.52;74.84;96605.13;5034157;28;20243;-57
2023/05/31 04:12:33;;;;;;;5.53;4.60;;;;;;;15.59;75.28;96600.75;5033359;28;20208;-57
2023/05/31 04:15:00;;;;;;;6.78;4.60;;;;;;;15.68;75.96;96604.22;5034010;28;20234;-57
2023/05/31 04:17:26;;;;;;;6.60;4.47;;;;;;;15.59;75.18;96611.41;5033860;28;20207;-57
2023/05/31 04:19:55;;;;;;;8.77;5.07;;;;;;;15.66;75.74;96616.91;5034185;28;20215;-57
2023/05/31 04:22:22;;;;;;;7.15;5.05;;;;;;;15.55;75.20;96612.78;5034066;28;20203;-57
2023/05/31 04:24:51;;;;;;;7.63;5.00;;;;;;;15.61;76.06;96616.59;5034243;28;20234;-57
2023/05/31 04:27:18;;;;;;;5.90;4.97;;;;;;;15.58;75.32;96623.09;5034408;28;20262;-62
2023/05/31 04:29:45;;;;;;;5.30;4.57;;;;;;;15.60;76.39;96615.75;5034411;28;20219;-57
2023/05/31 04:32:14;;;;;;;4.77;4.37;;;;;;;15.77;76.11;96622.66;5026963;28;20259;-57
2023/05/31 04:34:40;;;;;;;4.80;4.30;;;;;;;15.83;77.83;96623.78;5050378;28;20237;-58
2023/05/31 04:37:08;;;;;;;6.80;4.45;;;;;;;15.88;78.54;96627.56;5053753;28;20204;-57
2023/05/31 04:39:36;;;;;;;6.70;5.00;;;;;;;15.92;75.91;96628.91;5052993;28;20199;-58
2023/05/31 04:42:02;;;;;;;5.40;4.90;;;;;;;16.05;76.80;96627.50;5053351;28;20204;-58
2023/05/31 04:44:31;;;;;;;5.72;4.80;;;;;;;16.00;74.15;96633.34;5052365;28;20214;-64
2023/05/31 04:46:58;;;;;;;5.43;4.82;;;;;;;16.17;73.39;96631.38;5047061;28;20281;-59
2023/05/31 04:49:25;;;;;;;8.82;4.78;;;;;;;16.14;72.73;96627.25;5049437;28;20290;-57
2023/05/31 04:51:51;;;;;;;5.30;4.80;;;;;;;16.16;73.24;96629.72;5044105;28;20239;-67
2023/05/31 04:54:20;;;;;;;5.80;4.50;;;;;;;16.32;74.80;96625.13;5035620;28;20243;-59
2023/05/31 04:56:47;;;;;;;4.88;4.38;;;;;;;16.33;72.97;96628.63;5038799;28;20207;-57
2023/05/31 04:59:13;;;;;;;9.93;4.77;;;;;;;16.35;73.55;96623.91;5047169;28;20212;-58
2023/05/31 05:01:41;;;;;;;5.57;4.47;;;;;;;16.42;72.05;96638.19;5024038;28;20215;-58
2023/05/31 05:04:07;;;;;;;5.25;4.28;;;;;;;16.50;71.75;96635.47;5034562;28;20208;-57
2023/05/31 05:06:37;;;;;;;5.03;4.60;;;;;;;16.64;71.44;96637.38;5037111;28;20216;-58
2023/05/31 05:09:04;;;;;;;5.43;4.65;;;;;;;16.61;70.63;96643.09;5037598;28;20640;-57
2023/05/31 05:11:31;;;;;;;6.53;4.88;;;;;;;16.84;71.03;96643.88;5036825;28;20267;-57
2023/05/31 05:13:58;;;;;;;6.18;4.68;;;;;;;16.81;69.41;96646.06;5037852;28;20222;-58
2023/05/31 05:16:25;;;;;;;5.90;4.55;;;;;;;16.93;69.51;96645.44;5042191;28;20318;-57
2023/05/31 05:18:51;;;;;;;5.28;4.72;;;;;;;16.84;67.98;96640.34;5038732;28;20207;-58
2023/05/31 05:21:17;;;;;;;5.93;4.47;;;;;;;17.18;68.65;96647.88;5037211;28;20208;-58
2023/05/31 05:23:44;;;;;;;5.55;4.55;;;;;;;17.36;68.97;96645.63;5036863;28;20262;-59
2023/05/31 05:26:11;;;;;;;4.63;4.13;;;;;;;17.41;66.81;96648.59;5037037;28;20210;-58
2023/05/31 05:28:39;;;;;;;8.18;4.50;;;;;;;17.65;66.32;96640.28;5036516;28;20795;-58
2023/05/31 05:31:06;;;;;;;6.35;4.30;;;;;;;17.83;66.00;96634.53;5035769;28;20211;-57
2023/05/31 05:33:33;;;;;;;5.45;4.63;;;;;;;17.93;64.06;96637.75;5037240;28;20239;-57
2023/05/31 05:35:59;;;;;;;4.78;4.30;;;;;;;18.07;63.94;96638.72;5037144;28;20227;-57
2023/05/31 05:38:26;;;;;;;4.80;4.40;;;;;;;18.34;65.98;96640.66;5036961;28;20208;-57
2023/05/31 05:40:53;;;;;;;7.25;4.45;;;;;;;18.38;63.45;96644.63;5037243;28;20211;-57
2023/05/31 05:43:19;;;;;;;7.93;4.38;;;;;;;18.54;62.92;96630.97;5036677;28;20203;-57
2023/05/31 05:45:47;;;;;;;4.65;4.20;;;;;;;18.69;62.59;96639.78;5036123;28;20211;-58
2023/05/31 05:48:14;;;;;;;5.05;4.38;;;;;;;18.88;61.98;96639.09;5036469;28;20219;-57
2023/05/31 05:50:40;;;;;;;8.90;4.60;;;;;;;18.89;61.09;96645.28;5036829;28;20210;-58
2023/05/31 05:53:07;;;;;;;5.10;4.10;;;;;;;18.91;60.26;96642.41;5036735;28;20231;-58
2023/05/31 05:55:35;;;;;;;5.80;4.15;;;;;;;19.06;60.82;96635.91;5036476;28;20227;-57
2023/05/31 05:58:01;;;;;;;6.65;4.93;;;;;;;18.95;59.03;96639.16;5036596;28;20207;-58
2023/05/31 06:00:28;;;;;;;6.82;4.47;;;;;;;19.31;59.57;96642.47;5025110;28;20223;-57
2023/05/31 06:02:58;;;;;;;4.35;3.95;;;;;;;19.73;59.94;96644.16;5035206;28;20215;-58
2023/05/31 06:05:27;;;;;;;4.72;4.05;;;;;;;19.82;57.92;96652.88;5036532;28;20203;-57
2023/05/31 06:07:57;;;;;;;7.43;4.18;;;;;;;19.99;57.75;96642.59;5036890;28;20295;-58
2023/05/31 06:10:23;;;;;;;4.63;4.22;;;;;;;20.21;57.34;96649.50;5036876;28;20235;-58
2023/05/31 06:12:50;;;;;;;7.15;3.85;;;;;;;20.49;56.22;96649.38;5037534;28;20204;-57
2023/05/31 06:15:16;;;;;;;5.32;4.18;;;;;;;20.34;54.97;96653.06;5049662;28;20291;-58
2023/05/31 06:17:43;;;;;;;5.05;4.28;;;;;;;20.51;55.82;96653.50;5044721;28;20227;-58
2023/05/31 06:20:11;;;;;;;6.28;4.40;;;;;;;20.65;55.65;96660.53;5047842;28;20253;-58
2023/05/31 06:22:38;;;;;;;8.00;4.43;;;;;;;20.39;54.14;96659.69;5041718;28;20208;-57
2023/05/31 06:25:05;;;;;;;4.45;3.97;;;;;;;20.47;54.87;96652.28;5038713;28;20204;-57
2023/05/31 06:27:31;;;;;;;6.82;4.13;;;;;;;20.72;53.76;96661.41;5037124;28;20216;-57
2023/05/31 06:29:58;;;;;;;8.45;4.22;;;;;;;20.78;54.19;96665.94;5036062;28;20204;-57
2023/05/31 06:32:25;;;;;;;7.25;4.65;;;;;;;20.98;56.85;96657.03;5036669;28;20624;-57
2023/05/31 06:34:52;;;;;;;5.80;4.45;;;;;;;21.06;53.23;96665.75;5036243;28;20259;-57
2023/05/31 06:37:20;;;;;;;6.20;4.57;;;;;;;20.88;52.96;96665.53;5036398;28;20536;-58
2023/05/31 06:39:46;;;;;;;6.60;4.43;;;;;;;21.17;53.29;96667.84;5036417;28;20207;-57
2023/05/31 06:42:13;;;;;;;8.18;4.03;;;;;;;21.34;54.28;96670.91;5036779;28;20238;-57
2023/05/31 06:44:41;;;;;;;5.78;4.32;;;;;;;21.65;52.87;96662.97;5030981;28;20239;-58
2023/05/31 06:47:08;;;;;;;6.43;4.32;;;;;;;21.79;51.91;96661.88;5035992;28;20204;-56
2023/05/31 06:49:34;;;;;;;5.43;4.45;;;;;;;21.77;50.87;96661.28;5035886;28;20234;-57
2023/05/31 06:52:01;;;;;;;7.18;4.55;;;;;;;21.67;51.68;96650.13;5035635;28;20200;-58
2023/05/31 06:54:29;;;;;;;5.55;4.10;;;;;;;21.80;50.58;96655.47;5036134;28;20203;-57
2023/05/31 06:56:56;;;;;;;7.30;4.25;;;;;;;22.03;51.41;96660.38;5035812;28;20567;-57
2023/05/31 06:59:22;;;;;;;5.75;4.28;;;;;;;22.12;49.45;96652.88;5033546;28;20208;-57
2023/05/31 07:01:52;;;;;;;5.90;4.30;;;;;;;22.21;50.39;96652.41;5025100;28;20215;-57
2023/05/31 07:04:18;;;;;;;5.88;4.13;;;;;;;21.93;49.08;96643.03;5035639;28;20235;-57
2023/05/31 07:06:44;;;;;;;4.97;4.47;;;;;;;22.34;50.15;96651.53;5035886;28;20199;-57
2023/05/31 07:09:11;;;;;;;7.78;4.15;;;;;;;22.35;49.68;96653.19;5036017;28;20523;-58
2023/05/31 07:11:41;;;;;;;7.78;4.05;;;;;;;22.13;49.15;96654.53;5034992;28;20235;-57
2023/05/31 07:14:07;;;;;;;9.50;4.53;;;;;;;21.75;49.37;96641.81;5035372;28;20273;-57
2023/05/31 07:16:33;;;;;;;7.30;4.13;;;;;;;22.11;49.19;96652.03;5034707;28;20223;-58
2023/05/31 07:19:00;;;;;;;7.88;4.18;;;;;;;22.51;50.61;96649.94;5035082;28;20200;-58
2023/05/31 07:21:26;;;;;;;5.07;4.43;;;;;;;22.08;49.80;96663.25;5035065;28;20298;-58
2023/05/31 07:23:53;;;;;;;7.93;4.55;;;;;;;22.58;50.58;96652.59;5035006;28;20219;-57
2023/05/31 07:26:20;;;;;;;5.35;4.22;;;;;;;22.50;47.86;96650.16;5035017;28;20222;-57
2023/05/31 07:28:48;;;;;;;7.15;4.50;;;;;;;22.24;50.65;96645.78;5035162;28;20212;-57
2023/05/31 07:31:16;;;;;;;4.68;4.10;;;;;;;;;;5035760;28;20207;-58
2023/05/31 07:33:43;;;;;;;4.43;3.88;;;;;;;22.81;48.99;96648.31;5036564;28;20266;-58
2023/05/31 07:36:09;;;;;;;5.60;4.22;;;;;;;22.88;46.61;96647.44;5037072;28;20231;-55
2023/05/31 07:38:36;;;;;;;8.80;3.97;;;;;;;22.67;46.79;96649.44;5034792;28;20553;-56
2023/05/31 07:41:03;;;;;;;8.00;4.68;;;;;;;22.48;47.99;96652.25;5034707;28;20215;-56
2023/05/31 07:43:30;;;;;;;5.20;4.38;;;;;;;22.53;46.87;96658.63;5035331;28;20219;-55
2023/05/31 07:45:58;;;;;;;5.60;4.57;;;;;;;22.35;47.02;96655.88;5035405;28;20274;-56
2023/05/31 07:48:25;;;;;;;4.38;3.97;;;;;;;22.63;47.29;96650.09;5035438;28;20211;-56
2023/05/31 07:50:51;;;;;;;4.65;3.80;;;;;;;22.91;48.22;96645.13;5035535;28;20204;-56
2023/05/31 07:53:20;;;;;;;8.77;4.35;;;;;;;23.15;47.34;96638.06;5036751;28;20203;-56
2023/05/31 07:55:47;;;;;;;7.60;3.85;;;;;;;23.30;45.73;96633.16;5046925;28;20234;-56
2023/05/31 07:58:14;;;;;;;5.40;4.05;;;;;;;23.57;45.49;96647.22;5047998;28;20196;-58
2023/05/31 08:00:42;;;;;;;5.93;4.07;;;;;;;23.70;46.16;96639.00;5045938;28;20200;-56
2023/05/31 08:03:10;;;;;;;7.85;4.40;;;;;;;23.89;47.96;96650.59;5046555;28;20211;-57
2023/05/31 08:05:37;;;;;;;5.80;4.32;;;;;;;23.64;45.63;96635.31;5050771;28;20214;-59
2023/05/31 08:08:05;;;;;;;6.63;4.03;;;;;;;24.18;47.02;96639.03;5051146;28;20298;-59
2023/05/31 08:10:32;;;;;;;9.00;4.43;;;;;;;24.05;44.57;96622.97;5037438;28;20235;-57
2023/05/31 08:12:59;;;;;;;8.38;4.45;;;;;;;24.05;44.74;96634.63;5036706;28;20716;-57
2023/05/31 08:15:26;;;;;;;6.30;3.70;;;;;;;24.60;46.27;96629.91;5034806;28;20259;-57
2023/05/31 08:17:52;;;;;;;4.18;3.78;;;;;;;24.74;44.69;96623.22;5035047;28;20295;-56
2023/05/31 08:20:21;;;;;;;5.70;4.68;;;;;;;24.16;42.43;96627.66;5034820;28;20211;-57
2023/05/31 08:22:48;;;;;;;5.32;3.78;;;;;;;24.62;42.57;96633.19;5026905;28;20200;-58
2023/05/31 08:25:16;;;;;;;6.13;4.47;;;;;;;23.74;44.25;96629.38;5029497;28;20212;-57
2023/05/31 08:27:43;;;;;;;9.05;4.38;;;;;;;23.95;44.89;96628.91;5036358;28;20214;-57
2023/05/31 08:30:10;;;;;;;7.07;4.28;;;;;;;24.52;46.71;96627.53;5054987;28;20222;-58
2023/05/31 08:32:38;;;;;;;5.10;3.67;;;;;;;24.51;44.22;96625.91;5053829;28;20208;-58
2023/05/31 08:35:06;;;;;;;4.22;3.83;;;;;;;24.72;44.75;96627.22;5047058;28;20212;-57
2023/05/31 08:37:37;;;;;;;4.65;4.25;;;;;;;24.48;43.57;96634.44;5036696;28;20208;-57
2023/05/31 08:40:06;;;;;;;7.63;4.28;;;;;;;24.33;44.52;96636.75;5036287;28;20208;-56
2023/05/31 08:42:38;;;;;;;6.07;3.85;;;;;;;24.31;45.05;96633.44;5039400;28;20203;-56
2023/05/31 08:45:06;;;;;;;4.60;3.95;;;;;;;24.51;44.93;96628.59;5038144;28;20211;-58
2023/05/31 08:47:37;;;;;;;7.47;4.65;;;;;;;24.71;44.17;96628.28;5038582;28;20215;-58
2023/05/31 08:50:05;;;;;;;4.80;3.72;;;;;;;24.68;43.85;96624.16;5037903;28;20227;-57
2023/05/31 08:52:34;;;;;;;5.40;4.13;;;;;;;24.72;43.82;96622.66;5038414;28;20207;-57
2023/05/31 08:55:01;;;;;;;4.30;3.90;;;;;;;24.65;44.09;96616.53;5038063;28;20295;-56
2023/05/31 08:57:29;;;;;;;6.32;4.13;;;;;;;24.42;44.71;96621.03;5038253;28;20231;-57
2023/05/31 08:59:56;;;;;;;5.68;3.97;;;;;;;24.71;44.53;96623.69;5030550;28;20197;-57
2023/05/31 09:02:24;;;;;;;5.50;4.13;;;;;;;24.87;43.81;96624.13;5031996;28;20208;-57
2023/05/31 09:04:52;;;;;;;11.45;4.47;;;;;;;24.74;42.13;96620.53;5038126;28;20215;-57
2023/05/31 09:07:19;;;;;;;7.30;4.20;;;;;;;24.89;44.56;96619.28;5033986;28;20199;-56
2023/05/31 09:09:46;;;;;;;7.95;4.18;;;;;;;24.98;44.96;96615.16;5038718;28;20600;-56
2023/05/31 09:12:13;;;;;;;5.78;3.90;;;;;;;25.04;43.13;96616.97;5035787;28;20196;-57
2023/05/31 09:14:40;;;;;;;11.18;4.50;;;;;;;24.99;43.82;96614.94;5038231;28;20245;-58
2023/05/31 09:17:08;;;;;;;10.43;4.38;;;;;;;24.84;43.39;96616.44;5037203;28;20326;-57
2023/05/31 09:19:35;;;;;;;6.78;4.43;;;;;;;24.34;43.95;96616.75;5037552;28;20216;-57
2023/05/31 09:22:01;;;;;;;6.78;4.05;;;;;;;24.37;44.91;96610.09;5036791;28;20524;-57
2023/05/31 09:24:28;;;;;;;7.00;4.05;;;;;;;24.78;45.92;96610.91;5037602;28;20273;-57
2023/05/31 09:26:56;;;;;;;7.25;4.32;;;;;;;25.33;46.41;96605.16;5037497;28;20218;-56
2023/05/31 09:29:22;;;;;;;4.95;4.10;;;;;;;25.40;42.47;96605.88;5037221;28;20246;-57
2023/05/31 09:31:49;;;;;;;6.68;3.90;;;;;;;25.54;44.07;96607.31;5037232;28;20216;-57
2023/05/31 09:34:26;;;;;;;5.70;3.90;;;;;;;25.73;42.25;96608.81;5037452;28;20219;-58
2023/05/31 09:36:53;;;;;;;5.35;4.32;;;;;;;25.73;42.10;96616.94;5020220;28;20262;-58
2023/05/31 09:39:21;;;;;;;8.10;4.95;;;;;;;25.77;41.31;96606.44;5037169;28;20211;-58
2023/05/31 09:41:50;;;;;;;4.40;4.00;;;;;;;25.77;41.29;96605.63;5037383;28;20216;-56
2023/05/31 09:44:20;;;;;;;4.90;4.22;;;;;;;25.34;41.18;96606.81;5037109;28;20212;-58
2023/05/31 09:46:46;;;;;;;4.28;3.97;;;;;;;25.52;41.33;96600.47;5036727;28;20222;-58
2023/05/31 09:49:13;;;;;;;5.72;4.50;;;;;;;25.94;42.39;96599.19;5037004;28;20730;-58
2023/05/31 09:51:40;;;;;;;5.03;4.53;;;;;;;25.58;41.67;96597.63;5037024;28;20204;-58
2023/05/31 09:54:11;;;;;;;5.18;3.60;;;;;;;25.87;43.30;96600.41;5037176;28;20317;-56
2023/05/31 09:56:38;;;;;;;5.03;4.32;;;;;;;25.77;42.31;96590.19;5037208;28;20216;-57
2023/05/31 09:59:06;;;;;;;4.55;4.15;;;;;;;25.95;40.72;96597.31;5036982;28;20265;-56
2023/05/31 10:01:35;;;;;;;8.02;4.35;;;;;;;25.86;41.25;96596.06;5023856;28;20200;-57
2023/05/31 10:04:03;;;;;;;4.85;3.95;;;;;;;25.89;40.97;96584.75;5036960;28;20211;-57
2023/05/31 10:06:31;;;;;;;4.80;4.30;;;;;;;25.99;42.96;96582.22;5033400;28;20212;-58
2023/05/31 10:08:57;;;;;;;4.88;4.20;;;;;;;26.26;43.11;96586.03;5037292;28;20515;-58
2023/05/31 10:11:28;;;;;;;4.35;3.70;;;;;;;26.45;43.02;96584.75;5036630;28;20253;-57
2023/05/31 10:13:58;;;;;;;9.82;4.38;;;;;;;26.13;42.26;96578.16;5036669;28;20266;-57
2023/05/31 10:16:27;;;;;;;5.53;3.92;;;;;;;26.44;41.73;96574.16;5036492;28;20313;-58
2023/05/31 10:19:00;;;;;;;4.63;4.00;;;;;;;26.62;43.12;96577.47;5036176;28;20211;-57
2023/05/31 10:21:26;;;;;;;4.97;4.45;;;;;;;26.50;41.42;96578.63;5035855;28;20694;-55
2023/05/31 10:23:57;;;;;;;5.78;4.30;;;;;;;26.44;41.17;96579.56;5036337;28;20222;-58
2023/05/31 10:26:28;;;;;;;6.20;4.40;;;;;;;26.04;39.96;96579.63;5037342;28;20219;-58
2023/05/31 10:28:57;;;;;;;7.00;4.28;;;;;;;26.08;39.58;96575.34;5037042;28;20537;-57
2023/05/31 10:31:33;;;;;;;6.78;3.97;;;;;;;26.54;41.47;96575.16;5036338;28;20208;-57
2023/05/31 10:34:11;;;;;;;5.65;4.30;;;;;;;26.53;39.98;96584.38;5036381;28;20207;-57
2023/05/31 10:36:38;;;;;;;6.28;4.05;;;;;;;26.42;40.35;96571.69;5036219;28;20211;-57
2023/05/31 10:39:10;;;;;;;5.22;4.25;;;;;;;26.56;42.05;96572.22;5036174;28;20222;-57
2023/05/31 10:41:42;;;;;;;5.55;4.18;;;;;;;26.87;40.27;96560.81;5036254;28;20219;-56
2023/05/31 10:44:10;;;;;;;6.45;3.65;;;;;;;26.54;41.61;96567.00;5036051;28;20647;-57
2023/05/31 10:46:40;;;;;;;9.77;4.35;;;;;;;26.71;40.36;96564.34;5040349;28;20207;-57
2023/05/31 10:49:09;;;;;;;8.10;3.85;;;;;;;26.98;39.76;96559.06;5045982;28;20597;-57
2023/05/31 10:51:39;;;;;;;5.28;4.05;;;;;;;26.80;38.76;96567.44;5053560;28;20204;-57
2023/05/31 10:54:06;;;;;;;5.10;4.60;;;;;;;26.62;39.84;96565.78;5044506;28;20208;-58
2023/05/31 10:56:33;;;;;;;7.82;3.88;;;;;;;26.96;40.91;96566.66;5046498;28;20220;-57
2023/05/31 10:59:02;;;;;;;5.97;3.85;;;;;;;26.88;40.06;96573.31;5036126;28;20551;-58
2023/05/31 11:01:29;;;;;;;6.47;3.90;;;;;;;26.63;39.48;96568.28;5035016;28;20235;-56
2023/05/31 11:03:57;;;;;;;4.53;4.07;;;;;;;26.93;39.95;96558.97;5034763;28;20707;-57
2023/05/31 11:06:27;;;;;;;5.75;3.78;;;;;;;27.10;39.76;96551.66;5018613;28;20212;-57
2023/05/31 11:08:57;;;;;;;5.32;4.20;;;;;;;27.26;39.52;96560.84;5035956;28;20308;-57
2023/05/31 11:11:28;;;;;;;5.65;3.85;;;;;;;27.50;40.14;96560.41;5035375;28;20315;-58
2023/05/31 11:13:56;;;;;;;5.18;3.65;;;;;;;27.34;38.90;96557.72;5035654;28;20208;-56
2023/05/31 11:16:23;;;;;;;5.38;4.07;;;;;;;27.03;39.16;96542.88;5018129;28;20227;-57
2023/05/31 11:19:02;;;;;;;4.93;3.80;;;;;;;27.24;38.43;96549.41;5022260;28;20205;-56
2023/05/31 11:21:49;;;;;;;4.28;3.97;;;;;;;26.85;37.53;96549.41;5035607;28;20531;-58
2023/05/31 11:24:29;;;;;;;4.63;3.90;;;;;;;26.91;40.68;96553.81;5034663;28;20212;-58
2023/05/31 11:26:58;;;;;;;6.40;4.18;;;;;;;26.84;38.26;96553.16;5034415;28;20208;-57
2023/05/31 11:29:24;;;;;;;5.15;4.20;;;;;;;27.29;38.57;96547.59;5034206;28;20207;-57
2023/05/31 11:32:01;;;;;;;6.25;4.10;;;;;;;27.03;37.22;96542.88;5034559;28;20212;-57
2023/05/31 11:34:33;;;;;;;5.05;3.97;;;;;;;26.91;37.84;96542.13;5034763;28;20658;-57
2023/05/31 11:37:02;;;;;;;6.40;4.13;;;;;;;26.52;37.57;96538.50;5034449;28;20216;-58